Time;durP1;ratioP1;P1;durP2;ratioP2;P2;SDS_P1;SDS_P2;PMS_P1;PMS_P2;Temp;Humidity;BMP_temperature;BMP_pressure;BME280_temperature;BME280_humidity;BME280_pressure;Samples;Min_cycle;Max_cycle;Signal;HPM_P1;HPM_P2
2021/08/26 00:07:03;;;;;;;11.85;5.22;;;11.50;99.90;;;;;;4946116;29;20465;-96
2021/08/26 00:09:54;;;;;;;9.23;5.13;;;11.50;99.90;;;;;;4946082;29;20420;-96
2021/08/26 00:12:29;;;;;;;8.48;5.32;;;11.40;99.90;;;;;;4944176;29;20487;-96
2021/08/26 00:15:00;;;;;;;11.57;5.93;;;11.40;99.90;;;;;;4943075;29;20514;-96
2021/08/26 00:17:40;;;;;;;10.35;5.63;;;11.40;99.90;;;;;;4928314;29;20440;-96
2021/08/26 00:20:12;;;;;;;11.73;5.28;;;11.40;99.90;;;;;;4947551;29;20427;-96
2021/08/26 00:22:54;;;;;;;11.95;5.93;;;11.50;99.90;;;;;;4945304;29;20440;-96
2021/08/26 00:25:29;;;;;;;10.45;5.13;;;11.60;99.90;;;;;;4941963;29;20920;-96
2021/08/26 00:28:06;;;;;;;10.05;5.50;;;11.60;99.90;;;;;;4914338;29;20468;-96
2021/08/26 00:30:37;;;;;;;11.50;5.33;;;11.60;99.90;;;;;;4914348;29;20535;-95
2021/08/26 00:33:26;;;;;;;9.70;5.63;;;11.50;99.90;;;;;;4996403;23;20439;-96
2021/08/26 00:36:02;;;;;;;10.10;5.47;;;11.50;99.90;;;;;;4920777;29;20757;-95
2021/08/26 00:38:39;;;;;;;11.32;5.75;;;11.50;99.90;;;;;;4929427;29;20428;-96
2021/08/26 00:41:27;;;;;;;10.73;5.13;;;11.40;99.90;;;;;;4930408;29;20438;-96
2021/08/26 00:43:57;;;;;;;11.48;5.40;;;11.40;99.90;;;;;;4946950;29;20431;-96
2021/08/26 00:46:31;;;;;;;12.15;5.68;;;11.40;99.90;;;;;;4942812;29;20502;-96
2021/08/26 00:48:58;;;;;;;11.57;5.53;;;11.40;99.90;;;;;;4943293;29;20491;-96
2021/08/26 00:51:53;;;;;;;12.35;5.90;;;11.40;99.90;;;;;;4943366;29;20502;-96
2021/08/26 00:54:34;;;;;;;10.15;5.20;;;11.30;99.90;;;;;;4942565;29;20569;-96
2021/08/26 00:57:02;;;;;;;13.00;5.78;;;11.30;99.90;;;;;;4942105;29;20813;-96
2021/08/26 00:59:43;;;;;;;13.02;5.78;;;11.20;99.90;;;;;;4945965;29;20427;-96
2021/08/26 01:02:40;;;;;;;10.82;5.15;;;11.30;99.90;;;;;;4942881;29;20502;-96
2021/08/26 01:05:23;;;;;;;9.38;5.20;;;11.20;99.90;;;;;;4941699;29;20431;-96
2021/08/26 01:08:01;;;;;;;12.27;5.87;;;11.20;99.90;;;;;;4942618;29;20428;-96
2021/08/26 01:10:33;;;;;;;9.82;5.57;;;11.30;99.90;;;;;;4944307;29;20523;-96
2021/08/26 01:13:02;;;;;;;11.63;5.63;;;11.20;99.90;;;;;;4943809;29;20442;-95
2021/08/26 01:15:29;;;;;;;12.23;5.50;;;11.20;99.90;;;;;;4943342;29;20435;-96
2021/08/26 01:17:58;;;;;;;10.70;5.90;;;11.10;99.90;;;;;;4927764;29;21022;-96
2021/08/26 01:20:25;;;;;;;9.68;5.55;;;11.10;99.90;;;;;;4926468;29;20479;-96
2021/08/26 01:23:01;;;;;;;12.20;6.20;;;11.10;99.90;;;;;;4940993;29;20518;-96
2021/08/26 01:25:51;;;;;;;12.15;5.47;;;11.10;99.90;;;;;;4939944;29;20427;-96
2021/08/26 01:28:25;;;;;;;12.40;5.85;;;11.00;99.90;;;;;;4939059;29;20430;-96
2021/08/26 01:30:59;;;;;;;10.95;5.50;;;11.00;99.90;;;;;;4928550;29;20951;-96
2021/08/26 01:33:28;;;;;;;13.90;6.22;;;11.00;99.90;;;;;;4943571;29;20519;-96
2021/08/26 01:36:04;;;;;;;11.68;6.25;;;11.00;99.90;;;;;;4946085;29;20426;-96
2021/08/26 01:38:54;;;;;;;12.77;6.13;;;11.00;99.90;;;;;;4943593;29;20447;-96
2021/08/26 01:41:48;;;;;;;11.15;6.00;;;11.00;99.90;;;;;;4947093;29;20431;-96
2021/08/26 01:44:17;;;;;;;12.53;6.20;;;10.80;99.90;;;;;;4941769;29;20455;-96
2021/08/26 01:46:48;;;;;;;12.57;6.15;;;10.90;99.90;;;;;;4942750;29;20428;-96
2021/08/26 01:49:34;;;;;;;12.35;5.80;;;11.00;99.90;;;;;;4944130;29;20451;-96
2021/08/26 01:52:04;;;;;;;15.10;6.20;;;10.90;99.90;;;;;;4946300;29;20435;-96
2021/08/26 01:54:58;;;;;;;12.67;6.57;;;10.80;99.90;;;;;;4921839;29;20443;-96
2021/08/26 01:57:31;;;;;;;12.73;6.70;;;10.70;99.90;;;;;;4947535;29;20443;-96
2021/08/26 02:00:08;;;;;;;11.10;6.47;;;10.70;99.90;;;;;;4925176;29;20436;-96
2021/08/26 02:02:40;;;;;;;11.70;6.20;;;10.80;99.90;;;;;;4942191;29;20432;-96
2021/08/26 02:05:07;;;;;;;14.60;6.53;;;10.90;99.90;;;;;;4938953;29;20428;-96
2021/08/26 02:07:36;;;;;;;10.13;6.28;;;10.80;99.90;;;;;;4939235;29;20431;-96
2021/08/26 02:10:05;;;;;;;19.40;6.60;;;10.80;99.90;;;;;;4941602;29;20483;-96
2021/08/26 02:12:37;;;;;;;10.50;6.60;;;10.90;99.90;;;;;;4942229;29;20437;-96
2021/08/26 02:15:06;;;;;;;11.32;6.57;;;10.90;99.90;;;;;;5010349;23;20423;-96
2021/08/26 02:17:34;;;;;;;12.13;6.43;;;10.80;99.90;;;;;;4916666;29;20487;-96
2021/08/26 02:20:08;;;;;;;13.57;7.00;;;10.80;99.90;;;;;;4906664;29;20425;-96
2021/08/26 02:22:37;;;;;;;11.82;6.72;;;10.80;99.90;;;;;;4922740;29;20437;-96
2021/08/26 02:25:09;;;;;;;11.97;6.10;;;10.80;99.90;;;;;;4907136;29;20429;-96
2021/08/26 02:27:41;;;;;;;13.18;6.72;;;10.90;99.90;;;;;;4905479;29;20445;-96
2021/08/26 02:30:22;;;;;;;11.60;6.90;;;10.70;99.90;;;;;;4908867;29;20413;-95
2021/08/26 02:32:58;;;;;;;13.98;7.07;;;10.50;99.90;;;;;;4924428;29;20786;-96
2021/08/26 02:35:42;;;;;;;14.47;6.90;;;10.50;99.90;;;;;;4906445;29;20432;-96
2021/08/26 02:38:13;;;;;;;13.38;6.80;;;10.50;99.90;;;;;;4906031;29;20445;-95
2021/08/26 02:40:41;;;;;;;15.82;7.28;;;10.40;99.90;;;;;;4907603;29;20471;-96
2021/08/26 02:43:09;;;;;;;13.85;6.45;;;10.40;99.90;;;;;;4904929;29;20797;-96
2021/08/26 02:45:36;;;;;;;16.02;7.22;;;10.40;99.90;;;;;;4904570;29;20443;-96
2021/08/26 02:48:05;;;;;;;12.13;7.40;;;10.30;99.90;;;;;;4921409;29;20508;-96
2021/08/26 02:50:34;;;;;;;14.23;7.47;;;10.30;99.90;;;;;;4906154;29;20441;-96
2021/08/26 02:53:05;;;;;;;13.35;7.05;;;10.40;99.90;;;;;;4905683;29;20443;-96
2021/08/26 02:55:46;;;;;;;12.07;7.35;;;10.50;99.90;;;;;;4910339;29;20421;-96
2021/08/26 02:58:13;;;;;;;16.55;7.55;;;10.60;99.90;;;;;;4908755;29;20491;-96
2021/08/26 03:00:41;;;;;;;14.98;7.65;;;10.50;99.90;;;;;;4905932;29;20440;-96
2021/08/26 03:03:14;;;;;;;14.70;7.20;;;10.40;99.90;;;;;;4924843;29;20441;-96
2021/08/26 03:05:49;;;;;;;14.10;7.93;;;10.20;99.90;;;;;;4908671;29;20980;-96
2021/08/26 03:08:18;;;;;;;12.90;7.60;;;10.10;99.90;;;;;;4909493;29;20492;-95
2021/08/26 03:10:47;;;;;;;17.45;7.60;;;10.00;99.90;;;;;;4909588;29;20971;-96
2021/08/26 03:13:20;;;;;;;16.17;8.38;;;9.90;99.90;;;;;;4908138;29;20437;-96
2021/08/26 03:15:53;;;;;;;13.95;8.73;;;9.90;99.90;;;;;;4924710;29;20524;-95
2021/08/26 03:18:21;;;;;;;16.63;8.30;;;9.80;99.90;;;;;;4906313;29;20445;-96
2021/08/26 03:20:53;;;;;;;15.93;8.77;;;9.70;99.90;;;;;;4904862;29;20421;-96
2021/08/26 03:23:24;;;;;;;17.13;8.40;;;9.70;99.90;;;;;;4905945;29;20437;-96
2021/08/26 03:25:54;;;;;;;17.47;9.23;;;9.70;99.90;;;;;;4909429;29;20425;-96
2021/08/26 03:28:24;;;;;;;14.45;9.10;;;9.70;99.90;;;;;;4909732;29;20460;-96
2021/08/26 03:30:54;;;;;;;15.05;9.07;;;9.70;99.90;;;;;;4909291;29;20432;-96
2021/08/26 03:33:41;;;;;;;14.95;9.00;;;9.70;99.90;;;;;;4927594;29;20409;-96
2021/08/26 03:36:28;;;;;;;17.77;9.35;;;9.60;99.90;;;;;;4924123;29;20440;-96
2021/08/26 03:39:08;;;;;;;16.58;9.63;;;9.70;99.90;;;;;;4925317;29;20452;-96
2021/08/26 03:41:57;;;;;;;15.50;9.35;;;9.60;99.90;;;;;;4911150;29;20428;-96
2021/08/26 03:44:35;;;;;;;18.73;10.13;;;9.70;99.90;;;;;;4877902;29;20445;-96
2021/08/26 03:47:07;;;;;;;17.85;10.00;;;9.70;99.90;;;;;;4907879;29;20452;-95
2021/08/26 03:49:34;;;;;;;18.08;9.95;;;9.60;99.90;;;;;;4908631;29;20429;-96
2021/08/26 03:52:04;;;;;;;17.88;10.80;;;9.70;99.90;;;;;;4908164;29;20425;-96
2021/08/26 03:54:39;;;;;;;20.65;10.95;;;9.60;99.90;;;;;;4910833;29;20435;-96
2021/08/26 03:57:15;;;;;;;18.10;11.18;;;9.70;99.90;;;;;;4921131;29;20394;-96
2021/08/26 04:00:04;;;;;;;19.13;11.13;;;9.60;99.90;;;;;;4953507;28;20415;-96
2021/08/26 04:03:04;;;;;;;20.23;11.40;;;9.70;99.90;;;;;;4930970;29;20701;-96
2021/08/26 04:05:43;;;;;;;19.55;11.45;;;9.60;99.90;;;;;;4946571;29;20519;-96
2021/08/26 04:08:32;;;;;;;19.70;11.43;;;9.60;99.90;;;;;;4915759;29;20432;-96
2021/08/26 04:11:23;;;;;;;22.15;11.82;;;9.70;99.90;;;;;;4918850;29;20403;-96
2021/08/26 04:15:00;;;;;;;22.63;12.48;;;9.60;99.90;;;;;;4934639;29;20430;-96
2021/08/26 04:17:57;;;;;;;23.70;13.30;;;9.50;99.90;;;;;;4906905;29;20438;-95
2021/08/26 04:20:57;;;;;;;21.80;13.27;;;9.60;99.90;;;;;;4884208;29;20438;-96
2021/08/26 04:23:27;;;;;;;24.60;13.68;;;9.60;99.90;;;;;;4892232;29;20439;-95
2021/08/26 04:26:10;;;;;;;23.40;13.77;;;9.60;99.90;;;;;;4891433;29;20435;-96
2021/08/26 04:28:55;;;;;;;25.02;14.27;;;9.50;99.90;;;;;;4905187;29;20430;-95
2021/08/26 04:31:37;;;;;;;24.45;14.48;;;9.50;99.90;;;;;;4905939;29;20521;-95
2021/08/26 04:34:07;;;;;;;24.30;15.45;;;9.60;99.90;;;;;;4877854;29;20930;-96
2021/08/26 04:36:49;;;;;;;24.08;15.27;;;9.60;99.90;;;;;;4890909;29;20427;-96
2021/08/26 04:39:25;;;;;;;27.88;15.18;;;9.60;99.90;;;;;;4876896;29;20447;-96
2021/08/26 04:41:59;;;;;;;25.93;15.57;;;9.60;99.90;;;;;;4891414;29;20431;-96
2021/08/26 04:44:32;;;;;;;26.00;15.40;;;9.70;99.90;;;;;;4877925;29;20435;-96
2021/08/26 04:47:19;;;;;;;26.52;15.70;;;9.70;99.90;;;;;;4878478;29;20441;-96
2021/08/26 04:49:51;;;;;;;26.33;15.35;;;9.80;99.90;;;;;;4888685;29;20447;-96
2021/08/26 04:52:33;;;;;;;24.10;16.40;;;9.80;99.90;;;;;;4887073;29;20427;-96
2021/08/26 04:55:06;;;;;;;28.65;16.88;;;9.80;99.90;;;;;;4906273;29;20535;-95
2021/08/26 04:57:36;;;;;;;30.25;16.70;;;9.90;99.90;;;;;;4890177;29;20467;-96
2021/08/26 05:00:26;;;;;;;27.83;17.90;;;9.90;99.90;;;;;;4883623;29;20576;-96
2021/08/26 05:02:59;;;;;;;29.33;17.73;;;9.90;99.90;;;;;;4907095;29;20457;-96
2021/08/26 05:05:31;;;;;;;26.27;17.25;;;9.90;99.90;;;;;;4906643;29;20483;-96
2021/08/26 05:08:02;;;;;;;27.77;16.95;;;10.00;99.90;;;;;;4907876;29;20445;-96
2021/08/26 05:10:29;;;;;;;28.33;17.80;;;10.00;99.90;;;;;;4910411;29;20441;-96
2021/08/26 05:12:58;;;;;;;26.17;17.47;;;10.10;99.90;;;;;;4910467;29;21061;-96
2021/08/26 05:15:47;;;;;;;27.10;16.63;;;10.10;99.90;;;;;;4881040;29;20421;-96
2021/08/26 05:18:34;;;;;;;26.55;16.50;;;10.10;99.90;;;;;;4923103;29;20433;-96
2021/08/26 05:21:28;;;;;;;27.83;16.83;;;10.10;99.90;;;;;;4912281;29;20443;-96
2021/08/26 05:24:12;;;;;;;25.05;15.73;;;10.10;99.90;;;;;;4932038;29;20776;-96
2021/08/26 05:26:44;;;;;;;24.83;16.50;;;10.20;99.90;;;;;;4927113;29;20432;-96
2021/08/26 05:29:31;;;;;;;26.55;16.40;;;10.20;99.90;;;;;;4932709;29;20430;-96
2021/08/26 05:32:21;;;;;;;24.00;15.10;;;10.30;99.90;;;;;;4935496;29;20419;-96
2021/08/26 05:35:31;;;;;;;26.52;16.00;;;10.30;99.90;;;;;;4962918;23;20452;-96
2021/08/26 05:38:15;;;;;;;24.17;14.18;;;10.20;99.90;;;;;;4909401;29;20471;-96
2021/08/26 05:41:05;;;;;;;24.23;15.50;;;10.20;99.90;;;;;;4891282;29;20478;-96
2021/08/26 06:06:46;;;;;;;22.80;14.05;;;10.50;99.90;;;;;;4922830;29;20516;-96
2021/08/26 06:09:54;;;;;;;23.80;14.32;;;10.50;99.90;;;;;;4928867;29;20515;-95
2021/08/26 06:12:55;;;;;;;23.98;14.52;;;10.60;99.90;;;;;;4913418;29;20526;-96
2021/08/26 06:15:30;;;;;;;21.10;13.55;;;10.50;99.90;;;;;;4906251;29;20429;-95
2021/08/26 06:18:00;;;;;;;23.92;13.85;;;10.50;99.90;;;;;;4902866;29;20444;-94
2021/08/26 06:20:31;;;;;;;23.08;14.20;;;10.60;99.90;;;;;;4904053;29;20576;-95
2021/08/26 06:23:09;;;;;;;23.48;13.23;;;10.60;99.90;;;;;;4923350;29;20918;-96
2021/08/26 06:25:37;;;;;;;22.92;14.00;;;10.60;99.90;;;;;;4919318;29;20437;-96
2021/08/26 06:28:04;;;;;;;24.17;14.02;;;10.60;99.90;;;;;;4903148;29;20508;-95
2021/08/26 06:30:32;;;;;;;23.20;13.40;;;10.60;99.90;;;;;;4904070;29;20433;-96
2021/08/26 06:33:00;;;;;;;24.63;14.52;;;10.60;99.90;;;;;;4903537;29;20455;-95
2021/08/26 06:35:37;;;;;;;20.10;12.45;;;10.70;99.90;;;;;;4904468;29;21735;-96
2021/08/26 06:38:04;;;;;;;20.48;11.85;;;10.70;99.90;;;;;;4903425;29;20437;-95
2021/08/26 06:40:31;;;;;;;19.65;12.18;;;10.80;99.90;;;;;;4902843;29;20444;-94
2021/08/26 06:42:58;;;;;;;19.23;12.27;;;10.80;99.90;;;;;;4903175;29;20503;-95
2021/08/26 06:45:25;;;;;;;24.92;13.38;;;10.80;99.90;;;;;;4905171;29;20492;-94
2021/08/26 06:47:53;;;;;;;20.98;13.50;;;10.80;99.90;;;;;;4901674;29;20436;-95
2021/08/26 06:50:20;;;;;;;21.77;13.15;;;10.70;99.90;;;;;;4902009;29;20432;-94
2021/08/26 06:52:47;;;;;;;22.80;13.13;;;10.80;99.90;;;;;;4900844;29;20436;-95
2021/08/26 06:55:14;;;;;;;21.40;13.57;;;10.80;99.90;;;;;;4901337;29;20436;-95
2021/08/26 06:57:42;;;;;;;24.48;13.20;;;10.90;99.90;;;;;;4901312;29;20773;-94
2021/08/26 07:00:09;;;;;;;21.92;12.70;;;10.90;99.90;;;;;;4900984;29;20434;-94
2021/08/26 07:02:37;;;;;;;20.60;12.80;;;10.90;99.90;;;;;;4901936;29;20436;-95
2021/08/26 07:05:05;;;;;;;21.58;12.57;;;11.10;99.90;;;;;;4902894;29;20457;-94
2021/08/26 07:07:35;;;;;;;22.05;12.15;;;11.10;99.90;;;;;;4901793;29;20452;-94
2021/08/26 07:10:04;;;;;;;19.40;12.27;;;11.20;99.90;;;;;;4903713;29;20432;-96
2021/08/26 07:12:37;;;;;;;21.92;12.48;;;11.20;99.90;;;;;;4907236;29;20425;-95
2021/08/26 07:15:25;;;;;;;18.00;12.07;;;11.20;99.90;;;;;;4923491;29;20433;-94
2021/08/26 07:17:56;;;;;;;18.55;12.18;;;11.20;99.90;;;;;;4908212;29;20420;-96
2021/08/26 07:20:26;;;;;;;22.10;12.00;;;11.30;99.90;;;;;;4905013;29;20429;-96
2021/08/26 07:22:54;;;;;;;18.75;11.73;;;11.30;99.90;;;;;;4914257;29;20424;-94
2021/08/26 07:25:22;;;;;;;19.30;11.80;;;11.40;99.90;;;;;;4932896;29;20504;-94
2021/08/26 07:27:50;;;;;;;19.23;11.80;;;11.40;99.90;;;;;;4907764;29;20436;-95
2021/08/26 07:30:19;;;;;;;18.10;11.57;;;11.50;99.90;;;;;;4907714;29;20437;-96
2021/08/26 07:32:46;;;;;;;20.67;12.73;;;11.60;99.90;;;;;;4906199;29;20433;-96
2021/08/26 07:35:13;;;;;;;19.10;11.23;;;11.70;99.90;;;;;;4905846;29;20447;-94
2021/08/26 07:37:40;;;;;;;19.73;12.52;;;11.80;99.90;;;;;;4906791;29;20435;-95
2021/08/26 07:40:11;;;;;;;20.33;11.95;;;11.80;99.90;;;;;;4910388;29;20425;-96
2021/08/26 07:42:56;;;;;;;18.75;11.30;;;11.80;99.90;;;;;;4925130;29;20429;-95
2021/08/26 07:45:25;;;;;;;17.63;10.88;;;11.90;99.90;;;;;;4924588;29;20441;-94
2021/08/26 07:47:52;;;;;;;15.90;10.60;;;12.00;99.90;;;;;;4908577;29;20460;-95
2021/08/26 07:50:28;;;;;;;20.85;11.23;;;12.10;99.90;;;;;;4929450;29;20451;-95
2021/08/26 07:52:56;;;;;;;19.23;11.05;;;12.20;99.90;;;;;;4912425;29;20496;-96
2021/08/26 07:55:34;;;;;;;18.17;10.38;;;12.20;99.90;;;;;;4909820;29;20443;-95
2021/08/26 07:58:29;;;;;;;19.23;10.63;;;12.30;99.90;;;;;;4916681;29;20535;-96
2021/08/26 08:01:01;;;;;;;19.35;10.63;;;12.50;99.90;;;;;;4929012;29;20405;-96
2021/08/26 08:03:32;;;;;;;18.53;11.00;;;12.50;99.90;;;;;;4928769;29;20488;-95
2021/08/26 08:06:02;;;;;;;19.75;10.80;;;12.40;99.90;;;;;;4929294;29;20441;-95
2021/08/26 08:08:32;;;;;;;16.60;10.57;;;12.40;99.90;;;;;;4912128;29;20453;-96
2021/08/26 08:11:24;;;;;;;23.45;11.45;;;12.40;99.90;;;;;;4915315;29;20425;-96
2021/08/26 08:14:05;;;;;;;16.95;10.48;;;12.40;99.90;;;;;;4893276;29;20433;-96
2021/08/26 08:16:34;;;;;;;17.48;10.48;;;12.30;99.90;;;;;;4917195;29;20437;-96
2021/08/26 08:19:04;;;;;;;20.27;12.10;;;12.30;99.90;;;;;;4915797;29;20448;-96
2021/08/26 08:22:15;;;;;;;22.30;13.55;;;12.10;99.90;;;;;;4920375;29;20432;-96
2021/08/26 09:05:00;;;;;;;24.20;15.93;;;11.90;99.90;;;;;;5121867;23;20438;-96
2021/08/26 09:10:18;;;;;;;22.30;14.55;;;12.00;99.90;;;;;;5113066;23;20436;-96
2021/08/26 09:16:52;;;;;;;24.23;15.27;;;12.10;99.90;;;;;;5094784;23;20453;-96
2021/08/26 09:19:34;;;;;;;25.73;15.77;;;12.20;99.90;;;;;;4945522;29;20498;-96
2021/08/26 09:22:42;;;;;;;23.90;15.85;;;12.30;99.90;;;;;;4950139;29;20449;-96
2021/08/26 09:26:31;;;;;;;25.25;16.30;;;12.10;99.90;;;;;;4841520;29;20421;-96
2021/08/26 09:32:22;;;;;;;27.95;17.83;;;12.00;99.90;;;;;;5088149;23;20462;-96
2021/08/26 09:38:45;;;;;;;34.45;20.83;;;11.90;99.90;;;;;;5112783;23;20438;-96
2021/08/26 09:42:36;;;;;;;35.15;23.05;;;11.80;99.90;;;;;;4910110;29;20429;-96
2021/08/26 09:48:39;;;;;;;39.07;24.97;;;11.60;99.90;;;;;;2362713;23;20621;-96
2021/08/26 10:22:26;;;;;;;134.75;63.67;;;11.10;99.90;;;;;;4967106;23;20465;-96
2021/08/26 10:24:59;;;;;;;133.75;61.35;;;11.10;99.90;;;;;;4943718;29;20430;-94
2021/08/26 10:27:44;;;;;;;142.23;63.38;;;11.00;99.90;;;;;;4946468;29;20811;-95
2021/08/26 10:30:32;;;;;;;142.57;61.90;;;10.90;99.90;;;;;;4942127;29;20532;-94
2021/08/26 10:33:10;;;;;;;140.17;62.40;;;10.90;99.90;;;;;;4939496;29;20489;-95
2021/08/26 10:35:49;;;;;;;162.82;66.85;;;10.90;99.90;;;;;;4940661;29;20520;-96
2021/08/26 10:38:22;;;;;;;143.55;60.20;;;10.90;99.90;;;;;;4939876;29;20917;-96
2021/08/26 10:40:49;;;;;;;180.93;72.05;;;10.80;99.90;;;;;;4939707;29;20425;-94
2021/08/26 10:43:36;;;;;;;180.18;74.38;;;10.80;99.90;;;;;;4938946;29;20430;-96
2021/08/26 10:46:09;;;;;;;111.57;55.67;;;10.90;99.90;;;;;;4939957;29;20504;-95
2021/08/26 10:49:01;;;;;;;129.63;56.40;;;10.90;99.90;;;;;;4941106;29;20417;-96
2021/08/26 10:51:44;;;;;;;96.43;46.63;;;10.80;99.90;;;;;;4958194;29;20794;-96
2021/08/26 10:54:27;;;;;;;66.97;37.30;;;10.70;99.90;;;;;;4942645;29;20481;-95
2021/08/26 10:56:56;;;;;;;73.72;38.33;;;10.60;99.90;;;;;;4939256;29;20425;-95
2021/08/26 10:59:31;;;;;;;77.53;38.45;;;10.50;99.90;;;;;;4938693;29;20444;-94
2021/08/26 11:01:59;;;;;;;62.63;31.80;;;10.50;99.90;;;;;;4942019;29;20512;-95
2021/08/26 11:04:35;;;;;;;66.63;35.80;;;10.40;99.90;;;;;;4944200;29;20500;-95
2021/08/26 11:07:02;;;;;;;91.22;43.05;;;10.30;99.90;;;;;;4943075;29;20429;-94
2021/08/26 11:09:34;;;;;;;93.90;44.50;;;10.40;99.90;;;;;;4943672;29;20426;-95
2021/08/26 11:12:24;;;;;;;117.78;51.70;;;10.30;99.90;;;;;;4943768;29;20430;-94
2021/08/26 11:14:52;;;;;;;116.18;49.75;;;10.20;99.90;;;;;;4943150;29;20872;-94
2021/08/26 11:17:26;;;;;;;135.73;57.03;;;10.20;99.90;;;;;;4943370;29;20429;-94
2021/08/26 11:19:53;;;;;;;143.10;56.35;;;10.20;99.90;;;;;;4943627;29;20441;-95
2021/08/26 11:22:20;;;;;;;142.68;56.15;;;10.20;99.90;;;;;;4940123;29;20915;-96
2021/08/26 11:24:51;;;;;;;156.90;59.08;;;10.10;99.90;;;;;;4940536;29;20935;-95
2021/08/26 11:27:20;;;;;;;116.43;50.50;;;10.20;99.90;;;;;;4940338;29;20434;-96
2021/08/26 11:29:50;;;;;;;93.40;43.72;;;10.10;99.90;;;;;;4940664;29;20779;-94
2021/08/26 11:32:20;;;;;;;66.88;31.80;;;10.20;99.90;;;;;;4941304;29;20998;-96
2021/08/26 11:34:50;;;;;;;54.35;29.25;;;10.10;99.90;;;;;;4941430;29;20828;-95
2021/08/26 11:37:24;;;;;;;53.72;28.10;;;10.10;99.90;;;;;;4940875;29;20429;-96
2021/08/26 11:40:12;;;;;;;67.47;32.42;;;10.10;99.90;;;;;;4940336;29;20516;-96
2021/08/26 11:42:42;;;;;;;95.28;41.30;;;10.00;99.90;;;;;;4939340;29;20422;-94
2021/08/26 11:45:29;;;;;;;72.77;34.80;;;10.10;99.90;;;;;;4939411;29;20458;-94
2021/08/26 11:48:03;;;;;;;82.80;37.88;;;10.10;99.90;;;;;;4940005;29;20937;-96
2021/08/26 11:50:39;;;;;;;85.20;36.28;;;10.10;99.90;;;;;;4940727;29;20434;-96
2021/08/26 11:53:10;;;;;;;88.38;37.25;;;10.00;99.90;;;;;;4941348;29;20912;-95
2021/08/26 11:55:44;;;;;;;104.72;39.53;;;10.10;99.90;;;;;;4940333;29;20454;-96
2021/08/26 11:58:15;;;;;;;117.15;42.85;;;10.10;99.90;;;;;;4940536;29;20431;-95
2021/08/26 12:00:44;;;;;;;187.65;45.95;;;10.20;99.90;;;;;;4939431;29;20457;-96
2021/08/26 12:03:15;;;;;;;467.73;59.45;;;10.20;99.90;;;;;;4939329;29;20459;-94
2021/08/26 12:05:43;;;;;;;145.02;42.88;;;10.20;99.90;;;;;;4940103;29;20927;-94
2021/08/26 12:08:11;;;;;;;397.20;51.33;;;10.20;99.90;;;;;;4939728;29;20756;-95
2021/08/26 12:10:45;;;;;;;68.13;28.33;;;10.20;99.90;;;;;;4939959;29;20431;-95
2021/08/26 12:13:14;;;;;;;87.95;32.50;;;10.20;99.90;;;;;;4937547;29;20502;-96
2021/08/26 12:15:44;;;;;;;98.72;33.90;;;10.10;99.90;;;;;;4938864;29;20435;-95
2021/08/26 12:18:18;;;;;;;126.13;37.58;;;10.10;99.90;;;;;;4939667;29;20497;-95
2021/08/26 12:20:53;;;;;;;819.42;79.70;;;10.10;99.90;;;;;;4939207;29;20451;-96
2021/08/26 12:23:28;;;;;;;315.10;55.60;;;10.10;99.90;;;;;;4939093;29;20433;-96
2021/08/26 12:26:16;;;;;;;467.85;60.10;;;10.10;99.90;;;;;;4938709;29;20438;-94
2021/08/26 12:28:50;;;;;;;385.55;56.35;;;10.20;99.90;;;;;;4938485;29;20416;-94
2021/08/26 12:31:20;;;;;;;389.40;55.85;;;10.20;99.90;;;;;;4938976;29;20431;-95
2021/08/26 12:34:01;;;;;;;353.98;50.25;;;10.20;99.90;;;;;;4948266;29;20408;-95
2021/08/26 12:36:31;;;;;;;256.53;47.10;;;10.30;99.90;;;;;;4951826;29;20447;-94
2021/08/26 12:39:28;;;;;;;374.45;51.92;;;10.30;99.90;;;;;;4938920;29;20447;-94
2021/08/26 12:42:16;;;;;;;113.97;37.33;;;10.40;99.90;;;;;;4936285;29;20757;-94
2021/08/26 12:44:45;;;;;;;130.68;37.83;;;10.40;99.90;;;;;;4937775;29;20436;-96
2021/08/26 12:47:24;;;;;;;98.88;35.53;;;10.40;99.90;;;;;;4938263;29;20442;-94
2021/08/26 12:49:52;;;;;;;202.00;43.08;;;10.40;99.90;;;;;;4939130;29;20435;-96
2021/08/26 12:52:33;;;;;;;167.75;41.55;;;10.40;99.90;;;;;;4938554;29;20409;-95
2021/08/26 12:55:01;;;;;;;112.93;37.63;;;10.40;99.90;;;;;;4938902;29;20903;-95
2021/08/26 12:57:28;;;;;;;94.28;33.70;;;10.30;99.90;;;;;;4938981;29;20424;-95
2021/08/26 12:59:56;;;;;;;109.57;33.40;;;10.30;99.90;;;;;;4937492;29;20443;-95
2021/08/26 13:02:23;;;;;;;968.60;76.95;;;10.30;99.90;;;;;;4938451;29;20435;-95
2021/08/26 13:05:07;;;;;;;83.10;33.80;;;10.30;99.90;;;;;;4939737;29;20437;-95
2021/08/26 13:07:36;;;;;;;71.57;32.03;;;10.40;99.90;;;;;;4937785;29;20501;-96
2021/08/26 13:10:06;;;;;;;64.75;30.25;;;10.40;99.90;;;;;;4937894;29;20443;-94
2021/08/26 13:12:34;;;;;;;473.52;50.97;;;10.40;99.90;;;;;;4937433;29;20428;-95
2021/08/26 13:15:01;;;;;;;83.07;31.02;;;10.50;99.90;;;;;;4937562;29;20787;-95
2021/08/26 13:17:29;;;;;;;90.20;30.58;;;10.50;99.90;;;;;;4937809;29;20435;-96
2021/08/26 13:20:02;;;;;;;97.53;29.63;;;10.50;99.90;;;;;;4937880;29;20565;-95
2021/08/26 13:22:35;;;;;;;141.10;33.00;;;10.40;99.90;;;;;;4937766;29;20432;-94
2021/08/26 13:25:12;;;;;;;120.53;33.43;;;10.40;99.90;;;;;;4937222;29;20439;-94
2021/08/26 13:27:40;;;;;;;352.20;44.65;;;10.40;99.90;;;;;;4937243;29;20438;-96
2021/08/26 13:30:11;;;;;;;1985.77;130.00;;;10.40;99.90;;;;;;4937057;29;20816;-96
2021/08/26 13:32:39;;;;;;;74.38;33.58;;;10.30;99.90;;;;;;4937968;29;20846;-95
2021/08/26 13:35:09;;;;;;;84.03;35.03;;;10.30;99.90;;;;;;4937806;29;20446;-95
2021/08/26 13:37:38;;;;;;;111.63;38.95;;;10.30;99.90;;;;;;4937097;29;20506;-96
2021/08/26 13:40:06;;;;;;;83.40;37.92;;;10.30;99.90;;;;;;4937764;29;20519;-94
2021/08/26 13:42:33;;;;;;;120.27;42.83;;;10.30;99.90;;;;;;4937280;29;20427;-94
2021/08/26 13:45:00;;;;;;;91.50;39.92;;;10.40;99.90;;;;;;4937486;29;20470;-94
2021/08/26 13:47:27;;;;;;;104.93;39.90;;;10.50;99.90;;;;;;4937436;29;20424;-94
2021/08/26 13:49:55;;;;;;;91.00;38.75;;;10.60;99.90;;;;;;4937929;29;20435;-93
2021/08/26 13:52:22;;;;;;;88.63;39.30;;;10.80;99.90;;;;;;4938709;29;20435;-94
2021/08/26 13:54:49;;;;;;;58.50;32.60;;;11.00;99.90;;;;;;4938286;29;20871;-96
2021/08/26 13:57:17;;;;;;;42.63;26.48;;;11.20;99.90;;;;;;4937909;29;20958;-95
2021/08/26 13:59:44;;;;;;;23.58;16.75;;;11.40;99.90;;;;;;4936716;29;20455;-94
2021/08/26 14:02:14;;;;;;;17.50;12.93;;;11.60;99.90;;;;;;4937677;29;20502;-94
2021/08/26 14:04:42;;;;;;;29.27;19.30;;;11.50;99.90;;;;;;4936794;29;20439;-96
2021/08/26 14:07:09;;;;;;;19.70;14.18;;;11.60;99.90;;;;;;4937700;29;20499;-96
2021/08/26 14:09:36;;;;;;;30.58;18.27;;;11.60;99.90;;;;;;4937270;29;20499;-95
2021/08/26 14:12:03;;;;;;;19.80;14.57;;;11.60;99.90;;;;;;4937501;29;20447;-95
2021/08/26 14:14:33;;;;;;;14.80;11.10;;;11.90;99.90;;;;;;4936877;29;20457;-96
2021/08/26 14:17:00;;;;;;;12.85;10.45;;;12.20;99.90;;;;;;4937588;29;20424;-96
2021/08/26 14:19:30;;;;;;;14.63;10.40;;;12.30;99.90;;;;;;4959596;29;20481;-95
2021/08/26 14:21:58;;;;;;;12.77;10.35;;;12.20;99.90;;;;;;4948094;28;20461;-96
2021/08/26 14:24:36;;;;;;;17.15;12.10;;;12.00;99.90;;;;;;4941994;29;20456;-96
2021/08/26 14:27:03;;;;;;;19.58;14.00;;;11.90;99.90;;;;;;4942377;29;20436;-96
2021/08/26 14:29:36;;;;;;;18.87;13.47;;;11.90;99.90;;;;;;4941961;29;20460;-95
2021/08/26 14:32:04;;;;;;;17.42;13.07;;;11.90;99.90;;;;;;4942584;29;20437;-96
2021/08/26 14:34:31;;;;;;;20.17;14.80;;;11.80;99.90;;;;;;4942700;29;20453;-95
2021/08/26 14:37:10;;;;;;;19.80;14.07;;;11.80;99.90;;;;;;4944947;29;20422;-96
2021/08/26 14:39:47;;;;;;;15.63;10.88;;;12.10;99.90;;;;;;4943286;29;20461;-96
2021/08/26 14:42:15;;;;;;;19.02;10.90;;;12.10;99.90;;;;;;4943971;29;20440;-96
2021/08/26 14:44:45;;;;;;;15.00;11.52;;;12.00;99.90;;;;;;4940624;29;20955;-95
2021/08/26 14:47:12;;;;;;;17.50;13.30;;;11.80;99.90;;;;;;4940308;29;20432;-96
2021/08/26 14:49:40;;;;;;;18.63;12.53;;;11.70;99.90;;;;;;4940045;29;20432;-96
2021/08/26 14:52:07;;;;;;;20.23;13.80;;;11.70;99.90;;;;;;4940257;29;20438;-94
2021/08/26 14:54:35;;;;;;;17.60;12.80;;;11.70;99.90;;;;;;4939874;29;20452;-94
2021/08/26 14:57:03;;;;;;;16.77;13.25;;;11.70;99.90;;;;;;4939342;29;20426;-95
2021/08/26 14:59:31;;;;;;;18.20;13.85;;;11.80;99.90;;;;;;4939826;29;20426;-94
2021/08/26 15:01:58;;;;;;;12.73;9.85;;;12.10;99.90;;;;;;4939487;29;20430;-96
2021/08/26 15:04:27;;;;;;;11.50;8.73;;;12.30;99.90;;;;;;4939782;29;20512;-95
2021/08/26 15:06:54;;;;;;;11.07;8.70;;;12.30;99.90;;;;;;4939242;29;20508;-95
2021/08/26 15:09:21;;;;;;;15.82;10.60;;;12.20;99.90;;;;;;4939859;29;20497;-95